Cape Lisburne LRRS, AK

9:23 AM AKST on November 27, 2014 (GMT -0900)
Red Dog Mine | Change Station
CLOSE
Current Station
Airport
Location: Red Dog Mine,
Elevation: 968 ft
Nearby Weather Stations

Elev 968 ft 68.03 °N, 162.90 °W | Updated 2 hours ago

Light Snow
Light Snow
18 °F
Feels Like 8 °F
N
7
Wind Variable Wind from SE

Today
High -- | Low -- °F
--% Chance of Precip.
Yesterday
High -- | Low -- °F
Precip. -- in
12:48 PM 2:54 PM
Waxing Crescent, 31% visible
Pressure 30.20 in
Visibility 4.0 miles
Clouds Mostly Cloudy 1300 ft
Overcast 2000 ft
Windchill 8 °F
Dew Point 12 °F
Humidity 79%
Rainfall 0.00 in
Snow Depth Not available.
UV 0 out of 12
Pollen Not available.
Air Quality Not available.
Flu Activity Not available.
SPECI PADG 271613Z 14006KT 4SM -SN BKN013 OVC020 M08/M11 A3020

More Conditions Fewer Conditions

Pressure 30.20 in
Visibility 4.0 miles
Clouds Mostly Cloudy 1300 ft
Overcast 2000 ft
Windchill 8 °F
Dew Point 12 °F
Humidity 79%
Rainfall 0.00 in
Snow Depth Not available.
UV 0 out of 12
Pollen Not available.
Air Quality Not available.
Flu Activity Not available.
SPECI PADG 271613Z 14006KT 4SM -SN BKN013 OVC020 M08/M11 A3020

More Conditions Fewer Conditions

10-Day Weather Forecast

Almanac

Astronomy

Nov. 27, 2014 Rise Set
Actual Time
Civil Twilight
Nautical Twilight
Astronomical Twilight
Moon
Length of Visible Light
Length of Day
Tomorrow will be .
, % of the Moon is Illuminated

Today's Extremes

State Highs State Lows

Community

WunderPhotos

Upload Photos

1,774,079 photos uploaded!

WunderBlogs® & News

Nearby

Air Quality

  Air Quality AQ Index Pollutant
Not available.

Snow Depth

Station Depth Elevation

Earthquake Activity

City Distance Mag. Time & Date
Minimum magnitude displayed is 2.5.

Coastal Water Temperatures

Place Temperature

Nearby Weather Stations